Terminal Aerodrome Forecast
Issued by NWS Amarillo, TX

Home | Current Version | Previous Version | Text Only | Print | Product List | Glossary On
Versions: 1 2 3 4 5 6 7 8 9 10 11 12 13 14 15 16 17 18 19 20 21
000
FTUS44 KAMA 021100
TAFDHT
TAF
KDHT 021121Z 0212/0312 18011KT P6SM SCT030 BKN300
     FM021400 23010KT P6SM SCT050 BKN300
     FM022100 16010KT P6SM SCT040 BKN300 PROB30 0302/0306 -TSRA
      BKN040CB
     FM030900 18005KT 6SM BR SCT010 BKN035=

USA.gov is the U.S. government's official web portal to all federal, state and local government web resources and services.